CheckWX is a tool to help pilots better visualize weather data.  It is not intended as a substitute for an official pre-flight weather briefing.

20:27:19 UTC

KDXR METAR
Danbury Municipal Airport
Danbury, Connecticut, USA
Current

34 mins ago

KDXR 161953Z 24005KT 10SM SCT070 OVC085 04/M06 A3007 RMK AO2 SLP185 T00391056
Observed
Feb-16 @ 19:53 UTC
Wind
  • 240° at 5 KTS
Visibility
10 SM
Flight Rules
VFR
Cloud Levels
  • Scattered at 7,000' AGL
  • Overcast at 8,500' AGL
Temperature
C / 39°F
Dewpoint
-6°C / 21°F
Humidity
48%
Altimeter
30.07" Hg
Pressure
1018.32 hPa
Previous

2 hours ago

KDXR 161853Z VRB06KT 10SM OVC070 04/M06 A3008 RMK AO2 SLP189 T00391056
Observed
Feb-16 @ 18:53 UTC
Wind
  • Variable at 6 KTS
Visibility
10 SM
Flight Rules
VFR
Cloud Levels
  • Overcast at 7,000' AGL
Temperature
C / 39°F
Dewpoint
-6°C / 21°F
Humidity
48%
Altimeter
30.08" Hg
Pressure
1018.62 hPa
Previous

3 hours ago

KDXR 161753Z 27007KT 10SM BKN070 OVC100 03/M06 A3010 RMK AO2 SLP196 T00331061 10033 21028 58024
Observed
Feb-16 @ 17:53 UTC
Wind
  • 270° at 7 KTS
Visibility
10 SM
Flight Rules
VFR
Cloud Levels
  • Broken at 7,000' AGL
  • Overcast at 10,000' AGL
Temperature
C / 37°F
Dewpoint
-6°C / 21°F
Humidity
52%
Altimeter
30.1" Hg
Pressure
1019.32 hPa